Time;durP1;ratioP1;P1;durP2;ratioP2;P2;SDS_P1;SDS_P2;PMS_P1;PMS_P2;Temp;Humidity;BMP_temperature;BMP_pressure;BME280_temperature;BME280_humidity;BME280_pressure;Samples;Min_cycle;Max_cycle;Signal;HPM_P1;HPM_P2
2023/10/05 00:00:47;;;;;;;;;;;;;;;14.44;85.94;95961.06;5136965;27;1095;-57
2023/10/05 00:03:13;;;;;;;;;;;;;;;14.54;85.21;95967.13;5136901;27;1052;-57
2023/10/05 00:05:39;;;;;;;;;;;;;;;14.30;85.31;95970.59;5136891;27;1055;-57
2023/10/05 00:08:07;;;;;;;;;;;;;;;14.33;85.38;95964.91;5136200;27;1087;-57
2023/10/05 00:10:35;;;;;;;;;;;;;;;14.42;85.02;95974.69;5136646;27;1103;-57
2023/10/05 00:13:07;;;;;;;;;;;;;;;14.38;85.94;95967.09;5136689;27;1044;-57
2023/10/05 00:15:36;;;;;;;;;;;;;;;14.62;85.47;95974.41;5136646;27;1108;-57
2023/10/05 00:18:05;;;;;;;;;;;;;;;14.62;85.69;95967.16;5136725;27;1052;-57
2023/10/05 00:20:38;;;;;;;;;;;;;;;14.40;86.16;95971.31;5118234;27;1906;-57
2023/10/05 00:23:08;;;;;;;;;;;;;;;14.27;86.88;95967.41;5136390;27;1104;-57
2023/10/05 00:25:34;;;;;;;;;;;;;;;14.16;87.10;95969.38;5136724;27;942;-57
2023/10/05 00:28:07;;;;;;;;;;;;;;;14.19;86.63;95971.75;5136452;27;1036;-57
2023/10/05 00:30:33;;;;;;;;;;;;;;;14.25;86.55;95971.09;5136306;27;1024;-57
2023/10/05 00:33:00;;;;;;;;;;;;;;;14.11;86.62;95960.97;5136599;27;973;-57
2023/10/05 00:35:28;;;;;;;;;;;;;;;14.14;86.59;95967.88;5136172;27;976;-57
2023/10/05 00:37:58;;;;;;;;;;;;;;;14.16;86.44;95971.25;5136205;27;1024;-57
2023/10/05 00:40:33;;;;;;;;;;;;;;;14.09;86.68;95967.53;5118023;27;1985;-56
2023/10/05 00:43:24;;;;;;;;;;;;;;;13.85;88.18;95977.19;5136345;27;1066;-57
2023/10/05 00:45:51;;;;;;;;;;;;;;;14.10;88.34;95971.91;5136274;27;1052;-57
2023/10/05 00:50:54;;;;;;;;;;;;;;;14.21;86.76;95974.28;5136319;27;961;-56
2023/10/05 00:53:21;;;;;;;;;;;;;;;14.14;86.81;95976.78;5136176;27;1045;-57
2023/10/05 00:55:51;;;;;;;;;;;;;;;14.05;86.53;95983.97;5136010;27;1033;-57
2023/10/05 00:58:17;;;;;;;;;;;;;;;13.79;87.46;95988.56;5135669;27;1941;-57
2023/10/05 01:00:50;;;;;;;;;;;;;;;13.71;88.04;95975.09;5135762;27;962;-57
2023/10/05 01:03:23;;;;;;;;;;;;;;;13.68;88.18;95976.25;5135681;27;1036;-57
2023/10/05 01:06:01;;;;;;;;;;;;;;;13.89;87.53;95970.47;5135895;27;969;-57
2023/10/05 01:08:31;;;;;;;;;;;;;;;13.84;88.43;95981.69;5135552;27;1099;-57
2023/10/05 01:11:00;;;;;;;;;;;;;;;13.82;88.10;95983.72;5135852;27;988;-57
2023/10/05 01:13:33;;;;;;;;;;;;;;;13.81;88.42;95975.78;5135432;27;1103;-57
2023/10/05 01:16:03;;;;;;;;;;;;;;;13.73;88.98;95973.09;5135504;27;1119;-57
2023/10/05 01:18:31;;;;;;;;;;;;;;;13.88;88.37;95971.47;5135078;27;1914;-57
2023/10/05 01:20:58;;;;;;;;;;;;;;;13.94;88.04;95969.97;5134733;27;1119;-58
2023/10/05 01:23:28;;;;;;;;;;;;;;;13.86;88.38;95968.09;5135258;27;1048;-57
2023/10/05 01:25:55;;;;;;;;;;;;;;;13.62;90.06;95969.69;5135551;27;1033;-57
2023/10/05 01:28:21;;;;;;;;;;;;;;;13.70;90.50;95973.38;5135372;27;1060;-57
2023/10/05 01:30:47;;;;;;;;;;;;;;;13.74;90.30;95970.25;5135529;27;1048;-56
2023/10/05 01:33:13;;;;;;;;;;;;;;;13.69;90.33;95964.50;5135025;27;1040;-57
2023/10/05 01:35:43;;;;;;;;;;;;;;;13.69;90.29;95967.19;5135076;27;1131;-57
2023/10/05 01:38:11;;;;;;;;;;;;;;;13.68;90.14;95960.13;5135603;27;1016;-57
2023/10/05 01:40:38;;;;;;;;;;;;;;;13.72;89.47;95958.81;5134993;27;1957;-57
2023/10/05 01:43:04;;;;;;;;;;;;;;;13.77;89.12;95961.88;5135311;27;994;-57
2023/10/05 01:45:33;;;;;;;;;;;;;;;13.72;89.27;95957.97;5135038;27;1011;-57
2023/10/05 01:48:05;;;;;;;;;;;;;;;13.76;89.03;95964.72;5135170;27;992;-57
2023/10/05 01:50:32;;;;;;;;;;;;;;;13.78;88.95;95962.69;5134825;27;1044;-57
2023/10/05 01:55:28;;;;;;;;;;;;;;;13.66;88.81;95970.22;5134872;27;958;-57
2023/10/05 01:57:54;;;;;;;;;;;;;;;13.57;88.76;95973.84;5135020;27;1044;-57
2023/10/05 02:00:22;;;;;;;;;;;;;;;13.54;88.80;95971.47;5134596;27;2005;-57
2023/10/05 02:02:48;;;;;;;;;;;;;;;13.41;90.59;95970.06;5134770;27;1028;-57
2023/10/05 02:05:15;;;;;;;;;;;;;;;13.38;91.50;95969.53;5134597;27;1044;-57
2023/10/05 02:07:41;;;;;;;;;;;;;;;13.37;91.61;95965.16;5134562;27;1091;-57
2023/10/05 02:10:11;;;;;;;;;;;;;;;13.50;90.68;95962.03;5134763;27;1019;-57
2023/10/05 02:12:38;;;;;;;;;;;;;;;13.46;90.87;95970.41;5134516;27;1048;-57
2023/10/05 02:15:13;;;;;;;;;;;;;;;13.42;90.86;95970.91;5134784;27;995;-58
2023/10/05 02:17:42;;;;;;;;;;;;;;;13.38;90.83;95967.69;5134513;27;1115;-57
2023/10/05 02:20:25;;;;;;;;;;;;;;;13.45;90.16;95967.91;5134279;27;1906;-58
2023/10/05 02:22:52;;;;;;;;;;;;;;;13.39;90.70;95969.38;5134271;27;1245;-58
2023/10/05 02:25:24;;;;;;;;;;;;;;;13.37;90.88;95978.59;5134464;27;1016;-58
2023/10/05 02:27:51;;;;;;;;;;;;;;;13.26;91.73;95979.66;5134378;28;925;-58
2023/10/05 02:30:17;;;;;;;;;;;;;;;13.25;91.58;95988.72;5134224;27;980;-58
2023/10/05 02:32:44;;;;;;;;;;;;;;;13.32;91.92;95983.59;5116312;28;969;-56
2023/10/05 02:35:24;;;;;;;;;;;;;;;13.42;90.88;95978.97;5134492;28;1007;-57
2023/10/05 02:37:52;;;;;;;;;;;;;;;13.40;91.47;95980.97;5134600;28;965;-56
2023/10/05 02:40:25;;;;;;;;;;;;;;;13.38;91.79;95986.50;5134385;28;1992;-56
2023/10/05 02:42:54;;;;;;;;;;;;;;;13.35;91.88;95991.34;5134283;28;961;-56
2023/10/05 02:45:21;;;;;;;;;;;;;;;13.43;91.47;95983.31;5134305;28;1041;-57
2023/10/05 02:47:51;;;;;;;;;;;;;;;13.47;91.04;95990.09;5134163;28;1084;-57
2023/10/05 02:50:19;;;;;;;;;;;;;;;13.57;90.31;95987.28;5134399;28;1051;-56
2023/10/05 02:52:45;;;;;;;;;;;;;;;13.42;91.15;95992.41;5134414;28;1049;-56
2023/10/05 02:55:10;;;;;;;;;;;;;;;13.41;91.35;95983.50;5134292;28;1058;-57
2023/10/05 02:57:39;;;;;;;;;;;;;;;13.46;91.30;95986.53;5134009;28;973;-57
2023/10/05 03:00:08;;;;;;;;;;;;;;;13.47;91.02;95985.53;5134124;28;1914;-57
2023/10/05 03:02:40;;;;;;;;;;;;;;;13.34;91.86;95987.81;5133919;28;1028;-56
2023/10/05 03:05:07;;;;;;;;;;;;;;;13.23;92.41;95993.41;5134027;28;1044;-57
2023/10/05 03:07:34;;;;;;;;;;;;;;;13.22;92.49;95989.88;5133981;28;1015;-57
2023/10/05 03:10:00;;;;;;;;;;;;;;;13.22;92.76;95997.09;5133891;28;1079;-57
2023/10/05 03:12:27;;;;;;;;;;;;;;;13.32;92.03;95991.63;5133785;28;972;-57
2023/10/05 03:14:54;;;;;;;;;;;;;;;13.38;91.76;95983.81;5134137;28;996;-57
2023/10/05 03:17:21;;;;;;;;;;;;;;;13.28;92.41;95985.72;5134100;28;1029;-57
2023/10/05 03:19:48;;;;;;;;;;;;;;;13.21;92.98;95982.81;5134077;28;1906;-57
2023/10/05 03:22:14;;;;;;;;;;;;;;;13.25;92.30;95976.13;5133673;28;1222;-57
2023/10/05 03:24:47;;;;;;;;;;;;;;;13.25;93.34;95980.66;5133835;28;1020;-57
2023/10/05 03:27:14;;;;;;;;;;;;;;;13.19;93.89;95979.44;5134022;28;1003;-57
2023/10/05 03:29:45;;;;;;;;;;;;;;;13.30;92.96;95981.06;5134086;28;1034;-57
2023/10/05 03:34:37;;;;;;;;;;;;;;;13.33;92.33;95978.06;5133734;28;1078;-57
2023/10/05 03:37:13;;;;;;;;;;;;;;;13.29;92.57;95987.41;5133661;28;1039;-57
2023/10/05 03:40:19;;;;;;;;;;;;;;;13.23;92.79;95988.88;5133607;28;1910;-56
2023/10/05 03:42:40;;;;;;;;;;;;;;;13.26;91.68;95985.88;5134186;27;1126;-56
2023/10/05 03:45:09;;;;;;;;;;;;;;;13.12;92.33;95986.44;5137404;27;1027;-57
2023/10/05 03:47:39;;;;;;;;;;;;;;;13.06;92.90;95982.53;5137297;27;1042;-57
2023/10/05 03:50:08;;;;;;;;;;;;;;;13.20;92.25;95989.22;5137393;27;1043;-56
2023/10/05 03:52:34;;;;;;;;;;;;;;;13.17;92.34;95994.03;5137371;27;1032;-57
2023/10/05 03:55:05;;;;;;;;;;;;;;;13.06;92.74;95997.81;5137441;27;1040;-56
2023/10/05 03:57:31;;;;;;;;;;;;;;;13.07;92.41;95989.59;5137300;27;970;-56
2023/10/05 03:59:58;;;;;;;;;;;;;;;13.09;91.92;95990.28;5136896;27;1902;-57
2023/10/05 04:02:25;;;;;;;;;;;;;;;12.93;93.25;95994.69;5136827;27;1048;-57
2023/10/05 04:04:52;;;;;;;;;;;;;;;13.04;92.92;95997.97;5137184;27;999;-57
2023/10/05 04:07:21;;;;;;;;;;;;;;;13.12;92.60;95999.88;5137159;27;1052;-57
2023/10/05 04:09:47;;;;;;;;;;;;;;;13.12;92.95;96001.72;5136925;27;952;-56
2023/10/05 04:12:13;;;;;;;;;;;;;;;13.10;92.71;96001.88;5136977;27;1036;-57
2023/10/05 04:14:39;;;;;;;;;;;;;;;12.99;93.78;96005.63;5136805;27;1036;-57
2023/10/05 04:17:11;;;;;;;;;;;;;;;12.84;95.23;95997.31;5136567;27;1032;-56
2023/10/05 04:19:41;;;;;;;;;;;;;;;13.04;93.77;96007.88;5136922;27;1973;-57
2023/10/05 04:22:07;;;;;;;;;;;;;;;13.16;92.97;96008.47;5136498;27;1111;-56
2023/10/05 04:24:33;;;;;;;;;;;;;;;13.24;92.22;96006.69;5136756;27;1007;-56
2023/10/05 04:26:59;;;;;;;;;;;;;;;13.17;92.49;96020.91;5136317;27;1126;-57
2023/10/05 04:29:25;;;;;;;;;;;;;;;13.11;92.63;96021.50;5136435;27;969;-57
2023/10/05 04:31:52;;;;;;;;;;;;;;;13.15;92.36;96026.41;5136357;27;1028;-57
2023/10/05 04:34:18;;;;;;;;;;;;;;;13.13;92.41;96023.03;5136602;27;1059;-57
2023/10/05 04:36:46;;;;;;;;;;;;;;;13.05;92.60;96020.28;5118090;27;1032;-58
2023/10/05 04:39:21;;;;;;;;;;;;;;;13.01;92.96;96022.44;5136114;27;1980;-57
2023/10/05 04:41:49;;;;;;;;;;;;;;;12.92;94.18;96022.50;5136577;27;999;-57
2023/10/05 04:44:15;;;;;;;;;;;;;;;12.99;94.23;96015.53;5136045;27;1021;-57
2023/10/05 04:46:48;;;;;;;;;;;;;;;13.03;93.75;96015.09;5136328;27;977;-58
2023/10/05 04:49:19;;;;;;;;;;;;;;;13.23;92.76;96022.94;5136064;27;1099;-58
2023/10/05 04:51:45;;;;;;;;;;;;;;;13.18;92.99;96023.41;5136189;27;1048;-57
2023/10/05 04:54:12;;;;;;;;;;;;;;;13.13;92.82;96030.22;5135832;27;1003;-58
2023/10/05 05:02:21;;;;;;;;;;;;;;;13.09;93.33;96032.41;5135802;27;1044;-58
2023/10/05 05:07:17;;;;;;;;;;;;;;;13.23;92.89;96037.22;5135662;27;970;-58
2023/10/05 05:09:44;;;;;;;;;;;;;;;13.18;93.33;96044.88;5135625;27;1036;-57
2023/10/05 05:12:17;;;;;;;;;;;;;;;13.15;94.00;96044.38;5135597;27;1068;-57
2023/10/05 05:14:44;;;;;;;;;;;;;;;13.28;93.49;96055.56;5117549;27;1248;-57
2023/10/05 05:17:14;;;;;;;;;;;;;;;13.35;93.21;96050.44;5135876;27;1295;-57
2023/10/05 05:19:41;;;;;;;;;;;;;;;13.42;92.52;96055.00;5135778;27;1991;-57
2023/10/05 05:22:08;;;;;;;;;;;;;;;13.46;92.18;96053.69;5135440;27;1147;-57
2023/10/05 05:24:35;;;;;;;;;;;;;;;13.55;92.01;96054.59;5135632;27;1041;-57
2023/10/05 05:27:10;;;;;;;;;;;;;;;13.47;92.47;96052.72;5135752;27;1177;-57
2023/10/05 05:29:36;;;;;;;;;;;;;;;13.56;91.95;96058.13;5135720;27;1035;-57
2023/10/05 05:32:19;;;;;;;;;;;;;;;13.59;92.00;96058.66;5135368;27;1076;-57
2023/10/05 05:34:45;;;;;;;;;;;;;;;13.49;92.66;96057.94;5135584;27;1023;-57
2023/10/05 05:37:31;;;;;;;;;;;;;;;13.43;93.03;96054.03;5135441;27;965;-57
2023/10/05 05:39:58;;;;;;;;;;;;;;;13.37;93.07;96057.31;5135148;27;1906;-57
2023/10/05 05:42:30;;;;;;;;;;;;;;;13.43;92.99;96066.59;5135021;27;1083;-57
2023/10/05 05:44:56;;;;;;;;;;;;;;;13.93;90.48;96062.41;5135341;27;1027;-57
2023/10/05 05:47:22;;;;;;;;;;;;;;;15.70;80.77;96065.00;5135183;27;1000;-58
2023/10/05 05:49:50;;;;;;;;;;;;;;;16.22;77.80;96074.50;5135361;27;961;-58
2023/10/05 05:52:17;;;;;;;;;;;;;;;18.09;70.17;96084.28;5134923;27;1192;-58
2023/10/05 05:54:49;;;;;;;;;;;;;;;19.63;63.31;96076.94;5134982;27;1541;-58
2023/10/05 05:57:21;;;;;;;;;;;;;;;20.99;57.94;96084.75;5134814;27;918;-58
2023/10/05 05:59:47;;;;;;;;;;;;;;;21.86;54.54;96084.13;5134951;27;1906;-58
2023/10/05 06:02:13;;;;;;;;;;;;;;;22.19;53.83;96082.22;5134688;27;1107;-58
2023/10/05 06:04:40;;;;;;;;;;;;;;;22.68;52.07;96088.22;5134785;27;1073;-58
2023/10/05 06:07:16;;;;;;;;;;;;;;;23.15;51.00;96096.25;5134423;27;1033;-56
2023/10/05 06:09:43;;;;;;;;;;;;;;;23.72;48.85;96104.53;5134787;27;1059;-56
2023/10/05 06:12:19;;;;;;;;;;;;;;;23.61;49.50;96100.63;5134444;27;1019;-57
2023/10/05 06:14:46;;;;;;;;;;;;;;;22.70;51.09;96094.28;5134565;27;1067;-57
2023/10/05 06:17:12;;;;;;;;;;;;;;;21.09;56.89;96080.81;5134614;27;1019;-57
2023/10/05 06:19:38;;;;;;;;;;;;;;;19.87;61.63;96093.91;5134489;27;1987;-57
2023/10/05 06:22:07;;;;;;;;;;;;;;;19.22;65.04;96096.59;5134312;27;1108;-57
2023/10/05 06:24:42;;;;;;;;;;;;;;;18.64;68.21;96091.06;5134465;27;960;-57
2023/10/05 06:27:08;;;;;;;;;;;;;;;18.33;70.01;96102.94;5134535;27;1553;-57
2023/10/05 06:29:34;;;;;;;;;;;;;;;18.42;70.54;96102.84;5134370;28;1032;-57
2023/10/05 06:32:00;;;;;;;;;;;;;;;18.52;69.31;96095.31;5134376;28;1079;-57
2023/10/05 06:34:26;;;;;;;;;;;;;;;18.76;68.41;96099.56;5134251;28;1561;-57
2023/10/05 06:36:52;;;;;;;;;;;;;;;18.98;65.93;96096.94;5134667;28;1060;-56
2023/10/05 06:39:19;;;;;;;;;;;;;;;19.35;64.37;96104.03;5134142;28;1906;-56
2023/10/05 06:41:48;;;;;;;;;;;;;;;19.14;64.76;96099.41;5134611;28;1059;-56
2023/10/05 06:44:14;;;;;;;;;;;;;;;19.11;65.45;96100.63;5134211;28;1037;-56
2023/10/05 06:46:40;;;;;;;;;;;;;;;19.60;63.48;96106.38;5134565;28;972;-57
2023/10/05 06:49:06;;;;;;;;;;;;;;;20.11;62.03;96100.78;5134363;28;995;-56
2023/10/05 06:51:32;;;;;;;;;;;;;;;20.22;61.10;96100.22;5116178;28;1037;-57
2023/10/05 06:53:58;;;;;;;;;;;;;;;20.08;62.27;96099.28;5134413;28;996;-57
2023/10/05 06:56:26;;;;;;;;;;;;;;;20.26;61.55;96101.50;5134439;28;969;-57
2023/10/05 06:58:52;;;;;;;;;;;;;;;20.10;62.69;96101.78;5134209;28;1898;-57
2023/10/05 07:01:21;;;;;;;;;;;;;;;20.09;63.22;96100.97;5128764;28;2467;-57
2023/10/05 07:03:53;;;;;;;;;;;;;;;20.31;62.24;96102.78;5113588;28;1103;-57
2023/10/05 07:06:22;;;;;;;;;;;;;;;20.56;60.85;96109.41;5113447;28;1020;-57
2023/10/05 07:08:49;;;;;;;;;;;;;;;20.45;61.27;96097.25;5113554;28;1856;-57
2023/10/05 07:11:16;;;;;;;;;;;;;;;20.66;60.34;96103.66;5113362;28;897;-57
2023/10/05 07:13:42;;;;;;;;;;;;;;;20.80;60.10;96104.56;5113718;28;1021;-57
2023/10/05 07:16:09;;;;;;;;;;;;;;;20.96;60.08;96114.22;5095608;28;1549;-57
2023/10/05 07:18:35;;;;;;;;;;;;;;;21.02;59.81;96117.00;5116049;28;1989;-57
2023/10/05 07:21:04;;;;;;;;;;;;;;;21.37;58.13;96118.78;5117309;28;1248;-56
2023/10/05 07:23:31;;;;;;;;;;;;;;;21.39;57.69;96120.22;5117563;28;1127;-56
2023/10/05 07:25:58;;;;;;;;;;;;;;;21.14;60.52;96119.97;5117383;28;1060;-57
2023/10/05 07:28:25;;;;;;;;;;;;;;;21.13;59.31;96115.53;5117256;28;1059;-57
2023/10/05 07:30:51;;;;;;;;;;;;;;;21.25;60.12;96113.09;5117502;28;980;-56
2023/10/05 07:33:17;;;;;;;;;;;;;;;21.38;59.73;96115.00;5117075;28;1036;-57
2023/10/05 07:35:43;;;;;;;;;;;;;;;21.23;60.13;96110.56;5117260;28;1055;-57
2023/10/05 07:38:14;;;;;;;;;;;;;;;21.58;59.20;96115.91;5117051;28;1032;-57
2023/10/05 07:40:42;;;;;;;;;;;;;;;21.58;57.97;96113.19;5116972;28;1921;-56
2023/10/05 07:43:08;;;;;;;;;;;;;;;21.74;57.10;96111.13;5116976;28;1605;-56
2023/10/05 07:45:34;;;;;;;;;;;;;;;22.00;56.42;96108.41;5116769;28;1100;-57
2023/10/05 07:48:01;;;;;;;;;;;;;;;22.24;55.51;96111.56;5116844;28;1974;-57
2023/10/05 07:50:27;;;;;;;;;;;;;;;22.19;55.48;96105.88;5116637;28;1044;-57
2023/10/05 07:52:55;;;;;;;;;;;;;;;22.28;55.75;96106.56;5117013;28;999;-57
2023/10/05 07:55:21;;;;;;;;;;;;;;;22.34;56.42;96103.81;5116592;28;1036;-57
2023/10/05 07:57:48;;;;;;;;;;;;;;;22.39;56.44;96103.19;5116743;28;968;-57
2023/10/05 08:00:14;;;;;;;;;;;;;;;22.29;56.80;96090.00;5135204;27;1913;-57
2023/10/05 08:02:40;;;;;;;;;;;;;;;22.43;57.01;96093.53;5137378;27;984;-57
2023/10/05 08:05:08;;;;;;;;;;;;;;;22.59;56.75;96092.22;5137102;27;1103;-57
2023/10/05 08:07:34;;;;;;;;;;;;;;;22.73;56.07;96085.69;5136900;27;1040;-57
2023/10/05 08:10:00;;;;;;;;;;;;;;;22.41;56.99;96090.19;5137090;27;1043;-57
2023/10/05 08:12:29;;;;;;;;;;;;;;;22.46;55.79;96100.44;5136826;27;1075;-57
2023/10/05 08:14:55;;;;;;;;;;;;;;;22.71;54.48;96084.22;5137207;27;996;-56
2023/10/05 08:17:21;;;;;;;;;;;;;;;22.78;56.33;96075.00;5136704;27;1048;-57
2023/10/05 08:19:47;;;;;;;;;;;;;;;22.75;56.10;96074.59;5137014;27;1917;-57
2023/10/05 08:22:16;;;;;;;;;;;;;;;22.81;56.22;96074.53;5136642;27;1079;-58
2023/10/05 08:24:42;;;;;;;;;;;;;;;22.63;55.24;96074.41;5136658;27;1115;-58
2023/10/05 08:27:13;;;;;;;;;;;;;;;22.77;56.05;96073.31;5136737;27;1033;-58
2023/10/05 08:29:40;;;;;;;;;;;;;;;22.81;54.81;96074.53;5136125;27;1021;-58
2023/10/05 08:32:07;;;;;;;;;;;;;;;22.66;56.28;96068.53;5136450;27;1029;-58
2023/10/05 08:34:33;;;;;;;;;;;;;;;22.87;55.83;96063.84;5136707;27;1128;-58
2023/10/05 08:37:01;;;;;;;;;;;;;;;23.18;56.00;96072.13;5136676;27;977;-58
2023/10/05 08:39:30;;;;;;;;;;;;;;;23.44;55.68;96070.28;5118099;27;2000;-58
2023/10/05 08:42:02;;;;;;;;;;;;;;;23.64;53.30;96078.34;5126572;27;2457;-57
2023/10/05 08:44:30;;;;;;;;;;;;;;;23.62;54.10;96069.53;5115678;28;960;-57
2023/10/05 08:46:57;;;;;;;;;;;;;;;23.77;54.76;96072.78;5115549;28;898;-57
2023/10/05 08:49:24;;;;;;;;;;;;;;;23.99;52.43;96068.88;5115842;28;1025;-57
2023/10/05 08:51:51;;;;;;;;;;;;;;;24.04;52.58;96078.06;5115672;28;984;-59
2023/10/05 08:54:21;;;;;;;;;;;;;;;24.16;52.51;96069.97;5115457;28;1098;-58
2023/10/05 08:56:48;;;;;;;;;;;;;;;24.06;52.36;96072.38;5115817;28;1056;-58
2023/10/05 08:59:14;;;;;;;;;;;;;;;23.87;53.32;96055.94;5125364;27;1965;-58
2023/10/05 09:01:45;;;;;;;;;;;;;;;24.06;52.20;96062.28;5135886;27;1126;-59
2023/10/05 09:04:11;;;;;;;;;;;;;;;24.36;52.54;96054.22;5135974;27;971;-58
2023/10/05 09:06:43;;;;;;;;;;;;;;;24.22;52.11;96058.13;5136234;27;972;-59
2023/10/05 09:09:13;;;;;;;;;;;;;;;24.12;50.43;96046.91;5135665;27;1044;-59
2023/10/05 09:11:39;;;;;;;;;;;;;;;24.39;50.31;96058.38;5135730;27;1047;-58
2023/10/05 09:14:12;;;;;;;;;;;;;;;24.51;50.91;96044.78;5135812;27;1028;-61
2023/10/05 09:16:42;;;;;;;;;;;;;;;24.66;50.53;96049.94;5135589;27;1020;-57
2023/10/05 09:19:12;;;;;;;;;;;;;;;24.52;51.02;96041.03;5135380;27;1914;-59
2023/10/05 09:21:44;;;;;;;;;;;;;;;24.43;50.69;96034.16;5135345;27;1568;-57
2023/10/05 09:24:17;;;;;;;;;;;;;;;24.48;50.89;96029.69;5135659;27;1103;-58
2023/10/05 09:26:48;;;;;;;;;;;;;;;24.28;51.47;96024.47;5117309;27;1040;-58
2023/10/05 09:29:20;;;;;;;;;;;;;;;24.32;50.60;96022.09;5134685;27;1032;-58
2023/10/05 09:31:50;;;;;;;;;;;;;;;24.55;50.13;96024.19;5135342;27;1178;-59
2023/10/05 09:34:19;;;;;;;;;;;;;;;24.88;49.44;96012.84;5135185;27;999;-59
2023/10/05 09:36:45;;;;;;;;;;;;;;;25.17;48.74;96024.03;5135180;27;1047;-59
2023/10/05 09:39:14;;;;;;;;;;;;;;;25.33;48.32;96017.13;5135183;27;1914;-58
2023/10/05 09:41:41;;;;;;;;;;;;;;;25.06;48.12;96020.19;5116343;27;1033;-58
2023/10/05 09:44:10;;;;;;;;;;;;;;;24.99;48.95;96008.50;5135419;27;1052;-59
2023/10/05 09:46:37;;;;;;;;;;;;;;;25.06;48.89;96005.66;5134978;27;902;-58
2023/10/05 09:49:05;;;;;;;;;;;;;;;25.03;48.61;95998.75;5135195;27;1028;-58
2023/10/05 09:51:34;;;;;;;;;;;;;;;25.02;48.46;95996.25;5134763;27;1287;-59
2023/10/05 09:54:00;;;;;;;;;;;;;;;25.16;47.38;96002.38;5134885;27;1036;-60
2023/10/05 09:56:26;;;;;;;;;;;;;;;25.31;47.05;96000.09;5135063;27;973;-59
2023/10/05 09:58:53;;;;;;;;;;;;;;;25.33;47.62;95990.56;5134909;27;1910;-59
2023/10/05 10:01:21;;;;;;;;;;;;;;;25.33;47.27;95992.47;5134934;27;1025;-58
2023/10/05 10:03:48;;;;;;;;;;;;;;;25.35;47.49;95986.78;5134774;27;1007;-57
2023/10/05 10:06:18;;;;;;;;;;;;;;;25.24;47.01;95982.94;5134704;27;1029;-58
2023/10/05 10:08:55;;;;;;;;;;;;;;;25.00;47.38;95971.84;5134978;27;1043;-59
2023/10/05 10:11:27;;;;;;;;;;;;;;;24.94;47.88;95972.78;5134810;27;1036;-58
2023/10/05 10:14:00;;;;;;;;;;;;;;;24.82;48.28;95964.53;5119601;27;2809;-57
2023/10/05 10:16:27;;;;;;;;;;;;;;;25.07;47.44;95967.13;5114168;28;1031;-59
2023/10/05 10:19:04;;;;;;;;;;;;;;;25.31;46.83;95967.25;5114172;28;2071;-59
2023/10/05 10:21:41;;;;;;;;;;;;;;;25.23;46.26;95959.34;5114040;28;1373;-59
2023/10/05 10:24:12;;;;;;;;;;;;;;;25.38;46.78;95958.91;5113987;28;1048;-59
2023/10/05 10:26:45;;;;;;;;;;;;;;;25.61;46.10;95952.63;5113995;28;1033;-59
2023/10/05 10:29:11;;;;;;;;;;;;;;;25.65;47.26;95951.09;5114064;28;1018;-59
2023/10/05 10:31:47;;;;;;;;;;;;;;;25.70;45.97;95954.78;5113875;28;1037;-59
2023/10/05 10:34:28;;;;;;;;;;;;;;;25.64;46.16;95946.69;5113821;28;1095;-59
2023/10/05 10:36:56;;;;;;;;;;;;;;;25.34;45.80;95944.88;5114195;28;1041;-59
2023/10/05 10:39:23;;;;;;;;;;;;;;;25.41;46.07;95937.38;5113703;28;1990;-60
2023/10/05 10:42:03;;;;;;;;;;;;;;;25.37;45.04;95932.63;5114044;28;964;-58
2023/10/05 10:44:34;;;;;;;;;;;;;;;25.58;45.79;95918.38;5114057;28;996;-58
2023/10/05 10:47:09;;;;;;;;;;;;;;;25.59;44.69;95919.19;5113877;28;966;-59
2023/10/05 10:49:39;;;;;;;;;;;;;;;25.70;45.68;95910.16;5114037;28;985;-59
2023/10/05 10:52:09;;;;;;;;;;;;;;;25.64;45.63;95900.16;5115597;28;1501;-59
2023/10/05 10:54:40;;;;;;;;;;;;;;;25.64;45.79;95894.66;5118142;28;989;-59
2023/10/05 10:57:08;;;;;;;;;;;;;;;25.49;45.18;95895.13;5117863;28;1107;-59
2023/10/05 10:59:41;;;;;;;;;;;;;;;25.58;45.29;95890.16;5130886;27;1926;-59
2023/10/05 11:02:14;;;;;;;;;;;;;;;25.66;45.56;95882.41;5138621;27;1032;-59
2023/10/05 11:04:40;;;;;;;;;;;;;;;25.70;44.57;95886.31;5138218;27;1040;-59
2023/10/05 11:07:06;;;;;;;;;;;;;;;25.48;45.86;95875.16;5138416;27;996;-59
2023/10/05 11:09:36;;;;;;;;;;;;;;;25.40;45.42;95874.66;5138029;27;1103;-59
2023/10/05 11:12:10;;;;;;;;;;;;;;;25.46;45.54;95869.09;5138261;27;960;-59
2023/10/05 11:14:43;;;;;;;;;;;;;;;25.37;44.94;95873.25;5138116;27;1028;-59
2023/10/05 11:17:25;;;;;;;;;;;;;;;25.20;45.39;95870.31;5138016;27;1040;-59
2023/10/05 11:19:51;;;;;;;;;;;;;;;25.45;46.12;95859.19;5137858;27;1995;-59
2023/10/05 11:22:23;;;;;;;;;;;;;;;25.51;46.34;95836.31;5137641;27;1183;-59
2023/10/05 11:24:59;;;;;;;;;;;;;;;25.67;45.06;95850.41;5137904;27;1255;-59
2023/10/05 11:27:26;;;;;;;;;;;;;;;25.81;44.56;95848.22;5138036;27;984;-59
2023/10/05 11:29:55;;;;;;;;;;;;;;;25.80;46.27;95846.53;5137997;27;1059;-59
2023/10/05 11:32:23;;;;;;;;;;;;;;;25.64;44.35;95840.72;5138255;27;1027;-59
2023/10/05 11:34:55;;;;;;;;;;;;;;;25.46;44.57;95838.97;5137796;27;1059;-59
2023/10/05 11:37:23;;;;;;;;;;;;;;;25.48;45.56;95836.81;5137705;27;1047;-59
2023/10/05 11:39:49;;;;;;;;;;;;;;;25.61;44.82;95841.22;5137814;27;1999;-59
2023/10/05 11:42:24;;;;;;;;;;;;;;;25.63;44.42;95838.22;5137687;27;1019;-58
2023/10/05 11:45:00;;;;;;;;;;;;;;;25.70;44.36;95836.19;5137788;27;972;-58
2023/10/05 11:47:41;;;;;;;;;;;;;;;25.69;44.66;95829.06;5137596;27;979;-59
2023/10/05 11:50:08;;;;;;;;;;;;;;;25.74;43.82;95831.91;5137463;27;1026;-59
2023/10/05 11:52:40;;;;;;;;;;;;;;;25.62;44.46;95825.63;5137216;27;1048;-59
2023/10/05 11:55:14;;;;;;;;;;;;;;;25.72;44.38;95825.84;5137213;27;989;-59
2023/10/05 11:57:41;;;;;;;;;;;;;;;25.69;45.33;95826.34;5137603;27;987;-59
2023/10/05 12:00:08;;;;;;;;;;;;;;;25.73;44.69;95821.22;5137043;27;1910;-59
2023/10/05 12:02:34;;;;;;;;;;;;;;;25.62;44.42;95814.66;5136944;27;968;-59
2023/10/05 12:05:00;;;;;;;;;;;;;;;25.80;44.11;95810.94;5136456;27;1044;-59
2023/10/05 12:07:28;;;;;;;;;;;;;;;25.88;44.40;95814.16;5136944;27;1229;-58
2023/10/05 12:09:54;;;;;;;;;;;;;;;25.91;45.38;95807.34;5135759;27;1027;-59
2023/10/05 12:12:21;;;;;;;;;;;;;;;25.90;44.82;95809.25;5136796;27;1048;-59
2023/10/05 12:14:47;;;;;;;;;;;;;;;26.02;44.32;95802.94;5136897;27;1024;-59
2023/10/05 12:17:13;;;;;;;;;;;;;;;26.04;44.66;95807.09;5137056;27;1002;-59
2023/10/05 12:19:39;;;;;;;;;;;;;;;25.79;44.58;95793.69;5135493;27;1992;-59
2023/10/05 12:22:06;;;;;;;;;;;;;;;25.76;44.89;95796.91;5147756;27;1255;-59
2023/10/05 12:24:33;;;;;;;;;;;;;;;25.86;44.45;95797.13;5157537;27;1019;-59
2023/10/05 12:27:04;;;;;;;;;;;;;;;25.97;44.28;95791.88;5139260;27;1041;-59
2023/10/05 12:29:30;;;;;;;;;;;;;;;25.90;45.82;95784.59;5157639;27;991;-59
2023/10/05 12:32:01;;;;;;;;;;;;;;;25.87;45.36;95787.81;5157178;27;1040;-59
2023/10/05 12:34:27;;;;;;;;;;;;;;;25.88;44.24;95774.97;5157218;27;973;-59
2023/10/05 12:36:53;;;;;;;;;;;;;;;25.86;45.11;95771.66;5157511;27;1000;-60
2023/10/05 12:39:20;;;;;;;;;;;;;;;25.85;45.90;95770.78;5124333;27;2850;-59
2023/10/05 12:41:50;;;;;;;;;;;;;;;25.85;45.48;95767.22;5115979;28;976;-59
2023/10/05 12:44:17;;;;;;;;;;;;;;;25.91;45.55;95763.50;5116194;27;2501;-59
2023/10/05 12:46:45;;;;;;;;;;;;;;;25.81;44.38;95766.06;5115980;28;1029;-59
2023/10/05 12:49:12;;;;;;;;;;;;;;;25.77;42.89;95768.44;5115574;28;1035;-58
2023/10/05 12:51:38;;;;;;;;;;;;;;;25.73;43.74;95764.53;5115907;28;1044;-59
2023/10/05 12:54:08;;;;;;;;;;;;;;;25.56;45.41;95747.19;5115765;28;973;-59
2023/10/05 12:56:38;;;;;;;;;;;;;;;25.54;43.89;95757.56;5115742;28;1287;-59
2023/10/05 12:59:07;;;;;;;;;;;;;;;25.55;43.81;95749.06;5124253;27;1917;-59
2023/10/05 13:01:35;;;;;;;;;;;;;;;25.69;43.70;95750.50;5135978;27;1032;-59
2023/10/05 13:04:05;;;;;;;;;;;;;;;25.68;42.95;95748.81;5135814;27;1032;-59
2023/10/05 13:06:32;;;;;;;;;;;;;;;25.61;42.97;95750.88;5135804;27;1574;-59
2023/10/05 13:09:04;;;;;;;;;;;;;;;25.62;44.29;95741.56;5136081;27;1040;-59
2023/10/05 13:11:31;;;;;;;;;;;;;;;25.77;43.02;95746.53;5135966;27;1037;-58
2023/10/05 13:13:57;;;;;;;;;;;;;;;25.92;42.88;95739.75;5136033;27;1072;-58
2023/10/05 13:16:23;;;;;;;;;;;;;;;25.98;43.03;95736.03;5135528;27;1130;-58
2023/10/05 13:18:54;;;;;;;;;;;;;;;25.99;42.88;95737.66;5135479;27;1918;-58
2023/10/05 13:21:22;;;;;;;;;;;;;;;25.92;43.84;95731.53;5135489;27;1163;-58
2023/10/05 13:23:48;;;;;;;;;;;;;;;25.95;43.85;95723.63;5135568;27;1044;-58